sensor_id;sensor_type;location;lat;lon;timestamp;P1;durP1;ratioP1;P2;durP2;ratioP2
75626;SDS011;67372;49.404;11.034;2023-03-23T00:00:52;8.70;;;5.00;;
75626;SDS011;67372;49.404;11.034;2023-03-23T00:03:18;9.43;;;4.97;;
75626;SDS011;67372;49.404;11.034;2023-03-23T00:05:43;10.23;;;5.22;;
75626;SDS011;67372;49.404;11.034;2023-03-23T00:08:09;10.45;;;5.15;;
75626;SDS011;67372;49.404;11.034;2023-03-23T00:10:35;8.80;;;4.97;;
75626;SDS011;67372;49.404;11.034;2023-03-23T00:13:00;7.97;;;5.15;;
75626;SDS011;67372;49.404;11.034;2023-03-23T00:15:25;7.82;;;4.60;;
75626;SDS011;67372;49.404;11.034;2023-03-23T00:17:51;9.40;;;4.70;;
75626;SDS011;67372;49.404;11.034;2023-03-23T00:20:16;8.93;;;4.85;;
75626;SDS011;67372;49.404;11.034;2023-03-23T00:22:42;8.98;;;4.68;;
75626;SDS011;67372;49.404;11.034;2023-03-23T00:25:07;6.88;;;4.40;;
75626;SDS011;67372;49.404;11.034;2023-03-23T00:27:33;9.15;;;4.55;;
75626;SDS011;67372;49.404;11.034;2023-03-23T00:29:59;6.80;;;3.85;;
75626;SDS011;67372;49.404;11.034;2023-03-23T00:32:25;7.00;;;3.72;;
75626;SDS011;67372;49.404;11.034;2023-03-23T00:34:51;6.88;;;3.80;;
75626;SDS011;67372;49.404;11.034;2023-03-23T00:37:16;6.72;;;4.22;;
75626;SDS011;67372;49.404;11.034;2023-03-23T00:39:42;5.68;;;3.60;;
75626;SDS011;67372;49.404;11.034;2023-03-23T00:42:08;5.93;;;3.63;;
75626;SDS011;67372;49.404;11.034;2023-03-23T00:44:33;7.00;;;3.88;;
75626;SDS011;67372;49.404;11.034;2023-03-23T00:46:59;6.30;;;3.90;;
75626;SDS011;67372;49.404;11.034;2023-03-23T00:49:25;6.85;;;3.60;;
75626;SDS011;67372;49.404;11.034;2023-03-23T00:51:52;6.20;;;3.65;;
75626;SDS011;67372;49.404;11.034;2023-03-23T00:54:19;6.20;;;3.70;;
75626;SDS011;67372;49.404;11.034;2023-03-23T00:56:44;7.30;;;3.65;;
75626;SDS011;67372;49.404;11.034;2023-03-23T00:59:10;5.25;;;3.97;;
75626;SDS011;67372;49.404;11.034;2023-03-23T01:01:35;5.25;;;3.45;;
75626;SDS011;67372;49.404;11.034;2023-03-23T01:04:02;6.50;;;3.85;;
75626;SDS011;67372;49.404;11.034;2023-03-23T01:06:27;5.85;;;4.03;;
75626;SDS011;67372;49.404;11.034;2023-03-23T01:08:53;6.53;;;3.85;;
75626;SDS011;67372;49.404;11.034;2023-03-23T01:11:19;5.70;;;3.92;;
75626;SDS011;67372;49.404;11.034;2023-03-23T01:13:45;6.38;;;3.45;;
75626;SDS011;67372;49.404;11.034;2023-03-23T01:16:11;6.13;;;3.75;;
75626;SDS011;67372;49.404;11.034;2023-03-23T01:18:38;6.07;;;3.58;;
75626;SDS011;67372;49.404;11.034;2023-03-23T01:21:05;5.38;;;3.70;;
75626;SDS011;67372;49.404;11.034;2023-03-23T01:23:33;4.93;;;2.92;;
75626;SDS011;67372;49.404;11.034;2023-03-23T01:26:03;4.60;;;3.22;;
75626;SDS011;67372;49.404;11.034;2023-03-23T01:28:30;5.18;;;3.78;;
75626;SDS011;67372;49.404;11.034;2023-03-23T01:30:59;5.60;;;3.28;;
75626;SDS011;67372;49.404;11.034;2023-03-23T01:33:28;6.00;;;3.92;;
75626;SDS011;67372;49.404;11.034;2023-03-23T01:35:55;4.82;;;3.22;;
75626;SDS011;67372;49.404;11.034;2023-03-23T01:38:20;5.70;;;3.33;;
75626;SDS011;67372;49.404;11.034;2023-03-23T01:40:46;5.68;;;3.03;;
75626;SDS011;67372;49.404;11.034;2023-03-23T01:43:12;6.50;;;3.35;;
75626;SDS011;67372;49.404;11.034;2023-03-23T01:45:40;5.82;;;3.22;;
75626;SDS011;67372;49.404;11.034;2023-03-23T01:48:07;5.55;;;3.10;;
75626;SDS011;67372;49.404;11.034;2023-03-23T01:50:47;5.72;;;3.00;;
75626;SDS011;67372;49.404;11.034;2023-03-23T01:53:25;4.65;;;2.70;;
75626;SDS011;67372;49.404;11.034;2023-03-23T01:55:54;3.90;;;2.60;;
75626;SDS011;67372;49.404;11.034;2023-03-23T01:58:24;4.72;;;2.45;;
75626;SDS011;67372;49.404;11.034;2023-03-23T02:00:52;5.10;;;2.55;;
75626;SDS011;67372;49.404;11.034;2023-03-23T02:03:22;3.35;;;2.30;;
75626;SDS011;67372;49.404;11.034;2023-03-23T02:05:47;4.75;;;2.55;;
75626;SDS011;67372;49.404;11.034;2023-03-23T02:08:13;4.40;;;2.28;;
75626;SDS011;67372;49.404;11.034;2023-03-23T02:10:39;4.38;;;2.38;;
75626;SDS011;67372;49.404;11.034;2023-03-23T02:13:06;4.18;;;2.53;;
75626;SDS011;67372;49.404;11.034;2023-03-23T02:18:29;3.83;;;2.40;;
75626;SDS011;67372;49.404;11.034;2023-03-23T02:21:25;4.78;;;2.33;;
75626;SDS011;67372;49.404;11.034;2023-03-23T02:27:11;3.75;;;2.30;;
75626;SDS011;67372;49.404;11.034;2023-03-23T02:34:49;3.60;;;2.30;;
75626;SDS011;67372;49.404;11.034;2023-03-23T02:37:24;3.55;;;2.15;;
75626;SDS011;67372;49.404;11.034;2023-03-23T02:39:57;3.53;;;2.28;;
75626;SDS011;67372;49.404;11.034;2023-03-23T02:42:31;3.10;;;2.10;;
75626;SDS011;67372;49.404;11.034;2023-03-23T02:45:02;3.83;;;2.00;;
75626;SDS011;67372;49.404;11.034;2023-03-23T02:47:30;3.67;;;2.10;;
75626;SDS011;67372;49.404;11.034;2023-03-23T02:49:57;4.00;;;2.35;;
75626;SDS011;67372;49.404;11.034;2023-03-23T02:52:24;2.72;;;2.00;;
75626;SDS011;67372;49.404;11.034;2023-03-23T02:54:54;2.78;;;2.00;;
75626;SDS011;67372;49.404;11.034;2023-03-23T02:57:21;2.95;;;2.10;;
75626;SDS011;67372;49.404;11.034;2023-03-23T02:59:49;3.90;;;2.30;;
75626;SDS011;67372;49.404;11.034;2023-03-23T03:02:18;2.53;;;2.10;;
75626;SDS011;67372;49.404;11.034;2023-03-23T03:04:51;3.13;;;2.10;;
75626;SDS011;67372;49.404;11.034;2023-03-23T03:07:30;2.83;;;2.03;;
75626;SDS011;67372;49.404;11.034;2023-03-23T03:10:06;3.47;;;2.10;;
75626;SDS011;67372;49.404;11.034;2023-03-23T03:12:44;2.72;;;2.20;;
75626;SDS011;67372;49.404;11.034;2023-03-23T03:15:27;3.30;;;1.98;;
75626;SDS011;67372;49.404;11.034;2023-03-23T03:18:10;3.70;;;2.22;;
75626;SDS011;67372;49.404;11.034;2023-03-23T03:20:43;4.15;;;2.20;;
75626;SDS011;67372;49.404;11.034;2023-03-23T03:23:12;3.53;;;2.10;;
75626;SDS011;67372;49.404;11.034;2023-03-23T03:25:41;3.17;;;2.10;;
75626;SDS011;67372;49.404;11.034;2023-03-23T03:28:08;2.75;;;1.92;;
75626;SDS011;67372;49.404;11.034;2023-03-23T03:30:33;4.50;;;2.10;;
75626;SDS011;67372;49.404;11.034;2023-03-23T03:33:02;3.75;;;2.13;;
75626;SDS011;67372;49.404;11.034;2023-03-23T03:35:27;3.25;;;2.20;;
75626;SDS011;67372;49.404;11.034;2023-03-23T03:37:54;2.67;;;1.73;;
75626;SDS011;67372;49.404;11.034;2023-03-23T03:40:21;3.08;;;1.60;;
75626;SDS011;67372;49.404;11.034;2023-03-23T03:42:46;2.97;;;1.92;;
75626;SDS011;67372;49.404;11.034;2023-03-23T03:45:14;3.03;;;2.10;;
75626;SDS011;67372;49.404;11.034;2023-03-23T03:47:41;2.90;;;1.92;;
75626;SDS011;67372;49.404;11.034;2023-03-23T03:50:06;3.20;;;1.85;;
75626;SDS011;67372;49.404;11.034;2023-03-23T03:52:32;1.92;;;1.70;;
75626;SDS011;67372;49.404;11.034;2023-03-23T03:54:58;4.00;;;1.98;;
75626;SDS011;67372;49.404;11.034;2023-03-23T03:57:23;2.70;;;1.73;;
75626;SDS011;67372;49.404;11.034;2023-03-23T03:59:49;3.03;;;1.70;;
75626;SDS011;67372;49.404;11.034;2023-03-23T04:02:15;2.92;;;1.88;;
75626;SDS011;67372;49.404;11.034;2023-03-23T04:04:40;3.15;;;1.70;;
75626;SDS011;67372;49.404;11.034;2023-03-23T04:07:05;3.30;;;1.90;;
75626;SDS011;67372;49.404;11.034;2023-03-23T04:09:31;2.70;;;1.98;;
75626;SDS011;67372;49.404;11.034;2023-03-23T04:11:56;4.35;;;1.90;;
75626;SDS011;67372;49.404;11.034;2023-03-23T04:14:21;3.83;;;2.00;;
75626;SDS011;67372;49.404;11.034;2023-03-23T04:16:47;4.28;;;1.90;;
75626;SDS011;67372;49.404;11.034;2023-03-23T04:19:12;3.00;;;1.85;;
75626;SDS011;67372;49.404;11.034;2023-03-23T04:21:38;2.55;;;1.52;;
75626;SDS011;67372;49.404;11.034;2023-03-23T04:24:03;3.00;;;1.75;;
75626;SDS011;67372;49.404;11.034;2023-03-23T04:26:29;3.95;;;1.90;;
75626;SDS011;67372;49.404;11.034;2023-03-23T04:28:55;2.38;;;1.70;;
75626;SDS011;67372;49.404;11.034;2023-03-23T04:31:21;2.15;;;1.50;;
75626;SDS011;67372;49.404;11.034;2023-03-23T04:33:47;3.25;;;1.95;;
75626;SDS011;67372;49.404;11.034;2023-03-23T04:36:12;4.07;;;1.88;;
75626;SDS011;67372;49.404;11.034;2023-03-23T04:38:37;3.08;;;1.65;;
75626;SDS011;67372;49.404;11.034;2023-03-23T04:41:03;2.17;;;1.70;;
75626;SDS011;67372;49.404;11.034;2023-03-23T04:43:28;3.42;;;1.80;;
75626;SDS011;67372;49.404;11.034;2023-03-23T04:45:54;2.97;;;1.92;;
75626;SDS011;67372;49.404;11.034;2023-03-23T04:48:21;2.50;;;1.70;;
75626;SDS011;67372;49.404;11.034;2023-03-23T04:50:49;4.35;;;2.05;;
75626;SDS011;67372;49.404;11.034;2023-03-23T04:53:14;3.40;;;1.65;;
75626;SDS011;67372;49.404;11.034;2023-03-23T04:55:40;2.70;;;1.95;;
75626;SDS011;67372;49.404;11.034;2023-03-23T04:58:05;3.10;;;1.52;;
75626;SDS011;67372;49.404;11.034;2023-03-23T05:00:32;2.38;;;1.58;;
75626;SDS011;67372;49.404;11.034;2023-03-23T05:02:59;2.63;;;1.90;;
75626;SDS011;67372;49.404;11.034;2023-03-23T05:05:24;2.88;;;1.75;;
75626;SDS011;67372;49.404;11.034;2023-03-23T05:07:50;2.40;;;1.60;;
75626;SDS011;67372;49.404;11.034;2023-03-23T05:10:16;1.83;;;1.67;;
75626;SDS011;67372;49.404;11.034;2023-03-23T05:12:42;2.70;;;1.55;;
75626;SDS011;67372;49.404;11.034;2023-03-23T05:15:08;2.65;;;1.70;;
75626;SDS011;67372;49.404;11.034;2023-03-23T05:17:35;3.45;;;2.08;;
75626;SDS011;67372;49.404;11.034;2023-03-23T05:20:02;3.35;;;1.90;;
75626;SDS011;67372;49.404;11.034;2023-03-23T05:22:28;2.92;;;1.70;;
75626;SDS011;67372;49.404;11.034;2023-03-23T05:24:54;3.92;;;2.25;;
75626;SDS011;67372;49.404;11.034;2023-03-23T05:27:19;3.67;;;1.70;;
75626;SDS011;67372;49.404;11.034;2023-03-23T05:29:45;3.05;;;2.08;;
75626;SDS011;67372;49.404;11.034;2023-03-23T05:32:11;4.00;;;1.67;;
75626;SDS011;67372;49.404;11.034;2023-03-23T05:34:36;3.40;;;1.65;;
75626;SDS011;67372;49.404;11.034;2023-03-23T05:37:02;3.53;;;1.80;;
75626;SDS011;67372;49.404;11.034;2023-03-23T05:39:28;2.75;;;1.50;;
75626;SDS011;67372;49.404;11.034;2023-03-23T05:41:55;2.75;;;1.95;;
75626;SDS011;67372;49.404;11.034;2023-03-23T05:44:20;3.25;;;1.85;;
75626;SDS011;67372;49.404;11.034;2023-03-23T05:46:46;3.65;;;1.60;;
75626;SDS011;67372;49.404;11.034;2023-03-23T05:49:11;3.97;;;1.95;;
75626;SDS011;67372;49.404;11.034;2023-03-23T05:51:36;3.35;;;1.60;;
75626;SDS011;67372;49.404;11.034;2023-03-23T05:54:02;2.95;;;1.80;;
75626;SDS011;67372;49.404;11.034;2023-03-23T05:56:27;3.08;;;1.80;;
75626;SDS011;67372;49.404;11.034;2023-03-23T05:58:54;2.53;;;1.80;;
75626;SDS011;67372;49.404;11.034;2023-03-23T06:01:19;3.78;;;1.88;;
75626;SDS011;67372;49.404;11.034;2023-03-23T06:03:45;3.88;;;2.10;;
75626;SDS011;67372;49.404;11.034;2023-03-23T06:06:10;2.58;;;1.83;;
75626;SDS011;67372;49.404;11.034;2023-03-23T06:08:36;3.90;;;1.90;;
75626;SDS011;67372;49.404;11.034;2023-03-23T06:11:01;5.82;;;2.50;;
75626;SDS011;67372;49.404;11.034;2023-03-23T06:13:26;3.63;;;2.50;;
75626;SDS011;67372;49.404;11.034;2023-03-23T06:15:54;4.05;;;1.92;;
75626;SDS011;67372;49.404;11.034;2023-03-23T06:18:20;2.85;;;2.05;;
75626;SDS011;67372;49.404;11.034;2023-03-23T06:20:45;3.28;;;1.92;;
75626;SDS011;67372;49.404;11.034;2023-03-23T06:23:11;4.15;;;2.30;;
75626;SDS011;67372;49.404;11.034;2023-03-23T06:25:36;3.20;;;1.73;;
75626;SDS011;67372;49.404;11.034;2023-03-23T06:28:01;3.35;;;2.00;;
75626;SDS011;67372;49.404;11.034;2023-03-23T06:30:26;4.10;;;1.92;;
75626;SDS011;67372;49.404;11.034;2023-03-23T06:32:52;4.05;;;2.00;;
75626;SDS011;67372;49.404;11.034;2023-03-23T06:35:18;4.22;;;2.53;;
75626;SDS011;67372;49.404;11.034;2023-03-23T06:37:44;3.55;;;2.10;;
75626;SDS011;67372;49.404;11.034;2023-03-23T06:40:09;3.88;;;2.13;;
75626;SDS011;67372;49.404;11.034;2023-03-23T06:42:35;3.75;;;1.95;;
75626;SDS011;67372;49.404;11.034;2023-03-23T06:45:02;4.07;;;2.20;;
75626;SDS011;67372;49.404;11.034;2023-03-23T06:47:29;3.05;;;2.00;;
75626;SDS011;67372;49.404;11.034;2023-03-23T06:49:55;3.63;;;2.30;;
75626;SDS011;67372;49.404;11.034;2023-03-23T06:52:20;2.92;;;2.10;;
75626;SDS011;67372;49.404;11.034;2023-03-23T06:54:46;5.30;;;2.28;;
75626;SDS011;67372;49.404;11.034;2023-03-23T06:57:12;4.50;;;2.20;;
75626;SDS011;67372;49.404;11.034;2023-03-23T06:59:37;4.93;;;2.42;;
75626;SDS011;67372;49.404;11.034;2023-03-23T07:02:02;3.95;;;2.03;;
75626;SDS011;67372;49.404;11.034;2023-03-23T07:04:27;2.97;;;2.05;;
75626;SDS011;67372;49.404;11.034;2023-03-23T07:06:53;2.83;;;1.95;;
75626;SDS011;67372;49.404;11.034;2023-03-23T07:09:18;3.72;;;2.53;;
75626;SDS011;67372;49.404;11.034;2023-03-23T07:11:43;3.75;;;2.00;;
75626;SDS011;67372;49.404;11.034;2023-03-23T07:14:09;4.45;;;2.28;;
75626;SDS011;67372;49.404;11.034;2023-03-23T07:16:34;4.07;;;2.53;;
75626;SDS011;67372;49.404;11.034;2023-03-23T07:18:59;4.72;;;2.65;;
75626;SDS011;67372;49.404;11.034;2023-03-23T07:21:25;3.53;;;2.20;;
75626;SDS011;67372;49.404;11.034;2023-03-23T07:23:50;4.95;;;2.33;;
75626;SDS011;67372;49.404;11.034;2023-03-23T07:26:15;5.57;;;2.55;;
75626;SDS011;67372;49.404;11.034;2023-03-23T07:28:40;4.22;;;2.83;;
75626;SDS011;67372;49.404;11.034;2023-03-23T07:31:06;4.15;;;2.70;;
75626;SDS011;67372;49.404;11.034;2023-03-23T07:33:31;4.57;;;2.50;;
75626;SDS011;67372;49.404;11.034;2023-03-23T07:35:58;3.72;;;2.40;;
75626;SDS011;67372;49.404;11.034;2023-03-23T07:38:24;4.15;;;2.55;;
75626;SDS011;67372;49.404;11.034;2023-03-23T07:40:49;4.97;;;2.72;;
75626;SDS011;67372;49.404;11.034;2023-03-23T07:43:14;4.03;;;2.80;;
75626;SDS011;67372;49.404;11.034;2023-03-23T07:45:40;4.85;;;2.70;;
75626;SDS011;67372;49.404;11.034;2023-03-23T07:48:05;4.03;;;2.80;;
75626;SDS011;67372;49.404;11.034;2023-03-23T07:50:30;6.20;;;3.13;;
75626;SDS011;67372;49.404;11.034;2023-03-23T07:52:56;5.57;;;2.47;;
75626;SDS011;67372;49.404;11.034;2023-03-23T07:55:22;4.68;;;2.92;;
75626;SDS011;67372;49.404;11.034;2023-03-23T07:57:48;4.68;;;2.97;;
75626;SDS011;67372;49.404;11.034;2023-03-23T08:00:17;5.03;;;2.97;;
75626;SDS011;67372;49.404;11.034;2023-03-23T08:02:43;6.10;;;3.05;;
75626;SDS011;67372;49.404;11.034;2023-03-23T08:05:09;3.47;;;2.70;;
75626;SDS011;67372;49.404;11.034;2023-03-23T08:07:34;6.90;;;3.38;;
75626;SDS011;67372;49.404;11.034;2023-03-23T08:10:00;5.53;;;3.35;;
75626;SDS011;67372;49.404;11.034;2023-03-23T08:12:25;3.13;;;2.80;;
75626;SDS011;67372;49.404;11.034;2023-03-23T08:14:50;4.03;;;2.47;;
75626;SDS011;67372;49.404;11.034;2023-03-23T08:17:16;4.85;;;2.80;;
75626;SDS011;67372;49.404;11.034;2023-03-23T08:19:41;3.85;;;2.78;;
75626;SDS011;67372;49.404;11.034;2023-03-23T08:22:06;5.95;;;2.70;;
75626;SDS011;67372;49.404;11.034;2023-03-23T08:24:32;5.25;;;3.22;;
75626;SDS011;67372;49.404;11.034;2023-03-23T08:26:57;4.03;;;2.35;;
75626;SDS011;67372;49.404;11.034;2023-03-23T08:29:22;5.18;;;2.83;;
75626;SDS011;67372;49.404;11.034;2023-03-23T08:31:47;4.15;;;2.80;;
75626;SDS011;67372;49.404;11.034;2023-03-23T08:34:13;4.45;;;2.90;;
75626;SDS011;67372;49.404;11.034;2023-03-23T08:36:38;4.40;;;2.67;;
75626;SDS011;67372;49.404;11.034;2023-03-23T08:39:04;5.45;;;3.00;;
75626;SDS011;67372;49.404;11.034;2023-03-23T08:41:29;5.35;;;3.05;;
75626;SDS011;67372;49.404;11.034;2023-03-23T08:43:54;4.72;;;3.53;;
75626;SDS011;67372;49.404;11.034;2023-03-23T08:46:20;4.38;;;2.80;;
75626;SDS011;67372;49.404;11.034;2023-03-23T08:48:45;4.00;;;2.65;;
75626;SDS011;67372;49.404;11.034;2023-03-23T08:51:11;4.03;;;2.50;;
75626;SDS011;67372;49.404;11.034;2023-03-23T08:53:37;3.30;;;2.63;;
75626;SDS011;67372;49.404;11.034;2023-03-23T08:56:06;5.05;;;2.55;;
75626;SDS011;67372;49.404;11.034;2023-03-23T08:58:36;4.18;;;2.47;;
75626;SDS011;67372;49.404;11.034;2023-03-23T09:01:02;5.10;;;2.67;;
75626;SDS011;67372;49.404;11.034;2023-03-23T09:03:29;4.72;;;2.67;;
75626;SDS011;67372;49.404;11.034;2023-03-23T09:05:57;4.78;;;2.83;;
75626;SDS011;67372;49.404;11.034;2023-03-23T09:08:26;3.88;;;2.60;;
75626;SDS011;67372;49.404;11.034;2023-03-23T09:10:52;4.97;;;2.85;;
75626;SDS011;67372;49.404;11.034;2023-03-23T09:13:18;4.03;;;2.83;;
75626;SDS011;67372;49.404;11.034;2023-03-23T09:15:43;4.32;;;2.70;;
75626;SDS011;67372;49.404;11.034;2023-03-23T09:18:08;4.25;;;2.58;;
75626;SDS011;67372;49.404;11.034;2023-03-23T09:20:34;4.03;;;2.63;;
75626;SDS011;67372;49.404;11.034;2023-03-23T09:22:59;4.80;;;2.88;;
75626;SDS011;67372;49.404;11.034;2023-03-23T09:25:25;5.10;;;2.70;;
75626;SDS011;67372;49.404;11.034;2023-03-23T09:27:53;5.43;;;3.10;;
75626;SDS011;67372;49.404;11.034;2023-03-23T09:30:20;4.20;;;2.50;;
75626;SDS011;67372;49.404;11.034;2023-03-23T09:32:45;4.90;;;2.75;;
75626;SDS011;67372;49.404;11.034;2023-03-23T09:35:11;4.07;;;2.70;;
75626;SDS011;67372;49.404;11.034;2023-03-23T09:37:37;5.40;;;2.67;;
75626;SDS011;67372;49.404;11.034;2023-03-23T09:40:04;3.67;;;2.85;;
75626;SDS011;67372;49.404;11.034;2023-03-23T09:45:17;4.25;;;3.08;;
75626;SDS011;67372;49.404;11.034;2023-03-23T09:50:41;3.85;;;2.72;;
75626;SDS011;67372;49.404;11.034;2023-03-23T09:53:14;4.15;;;2.60;;
75626;SDS011;67372;49.404;11.034;2023-03-23T09:55:45;4.32;;;2.65;;
75626;SDS011;67372;49.404;11.034;2023-03-23T10:00:59;5.28;;;3.03;;
75626;SDS011;67372;49.404;11.034;2023-03-23T10:03:38;3.38;;;2.60;;
75626;SDS011;67372;49.404;11.034;2023-03-23T10:06:08;3.95;;;2.55;;
75626;SDS011;67372;49.404;11.034;2023-03-23T10:08:35;3.47;;;2.60;;
75626;SDS011;67372;49.404;11.034;2023-03-23T10:16:31;3.90;;;2.45;;
75626;SDS011;67372;49.404;11.034;2023-03-23T10:21:29;4.40;;;2.40;;
75626;SDS011;67372;49.404;11.034;2023-03-23T10:24:03;4.38;;;2.10;;
75626;SDS011;67372;49.404;11.034;2023-03-23T10:26:33;3.83;;;2.42;;
75626;SDS011;67372;49.404;11.034;2023-03-23T10:29:46;3.72;;;2.45;;
75626;SDS011;67372;49.404;11.034;2023-03-23T10:31:53;3.85;;;2.53;;
75626;SDS011;67372;49.404;11.034;2023-03-23T10:34:29;3.85;;;2.28;;
75626;SDS011;67372;49.404;11.034;2023-03-23T10:37:01;3.88;;;2.28;;
75626;SDS011;67372;49.404;11.034;2023-03-23T10:39:38;3.38;;;2.40;;
75626;SDS011;67372;49.404;11.034;2023-03-23T10:42:10;3.10;;;2.25;;
75626;SDS011;67372;49.404;11.034;2023-03-23T10:44:35;2.92;;;2.10;;
75626;SDS011;67372;49.404;11.034;2023-03-23T10:52:27;3.38;;;1.90;;
75626;SDS011;67372;49.404;11.034;2023-03-23T10:55:19;2.45;;;1.73;;
75626;SDS011;67372;49.404;11.034;2023-03-23T10:57:45;1.95;;;1.65;;
75626;SDS011;67372;49.404;11.034;2023-03-23T11:02:46;2.33;;;1.70;;
75626;SDS011;67372;49.404;11.034;2023-03-23T11:05:34;2.53;;;1.83;;
75626;SDS011;67372;49.404;11.034;2023-03-23T11:08:15;1.55;;;1.40;;
75626;SDS011;67372;49.404;11.034;2023-03-23T11:13:17;2.33;;;1.58;;
75626;SDS011;67372;49.404;11.034;2023-03-23T11:15:44;2.88;;;1.60;;
75626;SDS011;67372;49.404;11.034;2023-03-23T11:18:12;3.15;;;2.13;;
75626;SDS011;67372;49.404;11.034;2023-03-23T11:20:44;3.08;;;1.90;;
75626;SDS011;67372;49.404;11.034;2023-03-23T11:23:22;3.78;;;1.90;;
75626;SDS011;67372;49.404;11.034;2023-03-23T11:25:51;2.28;;;1.60;;
75626;SDS011;67372;49.404;11.034;2023-03-23T11:28:20;2.53;;;1.70;;
75626;SDS011;67372;49.404;11.034;2023-03-23T11:30:45;3.30;;;1.88;;
75626;SDS011;67372;49.404;11.034;2023-03-23T11:33:11;2.72;;;1.90;;
75626;SDS011;67372;49.404;11.034;2023-03-23T11:35:37;2.78;;;1.73;;
75626;SDS011;67372;49.404;11.034;2023-03-23T11:38:02;4.47;;;2.13;;
75626;SDS011;67372;49.404;11.034;2023-03-23T11:40:31;3.75;;;1.95;;
75626;SDS011;67372;49.404;11.034;2023-03-23T11:42:58;2.75;;;1.77;;
75626;SDS011;67372;49.404;11.034;2023-03-23T11:45:38;2.97;;;2.13;;
75626;SDS011;67372;49.404;11.034;2023-03-23T11:51:14;2.50;;;1.70;;
75626;SDS011;67372;49.404;11.034;2023-03-23T11:53:55;2.55;;;1.58;;
75626;SDS011;67372;49.404;11.034;2023-03-23T11:56:25;1.77;;;1.50;;
75626;SDS011;67372;49.404;11.034;2023-03-23T11:58:55;2.50;;;1.50;;
75626;SDS011;67372;49.404;11.034;2023-03-23T12:07:18;3.50;;;1.60;;
75626;SDS011;67372;49.404;11.034;2023-03-23T12:12:25;1.80;;;1.30;;
75626;SDS011;67372;49.404;11.034;2023-03-23T12:15:20;2.30;;;1.42;;
75626;SDS011;67372;49.404;11.034;2023-03-23T12:23:30;2.10;;;1.58;;
75626;SDS011;67372;49.404;11.034;2023-03-23T12:31:43;2.33;;;1.50;;
75626;SDS011;67372;49.404;11.034;2023-03-23T12:42:54;2.63;;;1.73;;
75626;SDS011;67372;49.404;11.034;2023-03-23T12:48:24;2.72;;;1.60;;
75626;SDS011;67372;49.404;11.034;2023-03-23T12:51:02;1.77;;;1.33;;
75626;SDS011;67372;49.404;11.034;2023-03-23T12:53:34;2.80;;;1.45;;
75626;SDS011;67372;49.404;11.034;2023-03-23T12:58:44;1.27;;;1.10;;
75626;SDS011;67372;49.404;11.034;2023-03-23T13:08:53;1.88;;;1.35;;
75626;SDS011;67372;49.404;11.034;2023-03-23T13:11:33;2.13;;;1.10;;
75626;SDS011;67372;49.404;11.034;2023-03-23T13:17:19;1.40;;;1.08;;
75626;SDS011;67372;49.404;11.034;2023-03-23T13:22:58;2.20;;;1.20;;
75626;SDS011;67372;49.404;11.034;2023-03-23T13:27:59;3.15;;;1.30;;
75626;SDS011;67372;49.404;11.034;2023-03-23T13:30:25;1.50;;;1.10;;
75626;SDS011;67372;49.404;11.034;2023-03-23T13:32:51;1.50;;;1.10;;
75626;SDS011;67372;49.404;11.034;2023-03-23T13:35:26;2.08;;;1.30;;
75626;SDS011;67372;49.404;11.034;2023-03-23T13:38:00;1.95;;;1.05;;
75626;SDS011;67372;49.404;11.034;2023-03-23T13:40:26;2.08;;;1.10;;
75626;SDS011;67372;49.404;11.034;2023-03-23T13:42:55;1.92;;;1.10;;
75626;SDS011;67372;49.404;11.034;2023-03-23T13:48:16;1.35;;;1.05;;
75626;SDS011;67372;49.404;11.034;2023-03-23T13:50:48;1.38;;;1.02;;
75626;SDS011;67372;49.404;11.034;2023-03-23T13:53:20;1.67;;;1.13;;
75626;SDS011;67372;49.404;11.034;2023-03-23T13:55:49;1.75;;;1.20;;
75626;SDS011;67372;49.404;11.034;2023-03-23T13:58:30;1.60;;;1.20;;
75626;SDS011;67372;49.404;11.034;2023-03-23T14:01:09;1.75;;;1.40;;
75626;SDS011;67372;49.404;11.034;2023-03-23T14:03:38;1.75;;;1.13;;
75626;SDS011;67372;49.404;11.034;2023-03-23T14:06:06;2.88;;;1.20;;
75626;SDS011;67372;49.404;11.034;2023-03-23T14:08:38;1.73;;;1.30;;
75626;SDS011;67372;49.404;11.034;2023-03-23T14:11:10;1.52;;;1.30;;
75626;SDS011;67372;49.404;11.034;2023-03-23T14:13:50;1.52;;;1.40;;
75626;SDS011;67372;49.404;11.034;2023-03-23T14:19:14;1.92;;;1.30;;
75626;SDS011;67372;49.404;11.034;2023-03-23T14:21:48;2.58;;;1.60;;
75626;SDS011;67372;49.404;11.034;2023-03-23T14:24:23;2.50;;;1.35;;
75626;SDS011;67372;49.404;11.034;2023-03-23T14:26:51;1.35;;;1.25;;
75626;SDS011;67372;49.404;11.034;2023-03-23T14:29:18;1.70;;;1.40;;
75626;SDS011;67372;49.404;11.034;2023-03-23T14:31:53;2.60;;;1.70;;
75626;SDS011;67372;49.404;11.034;2023-03-23T14:34:20;2.35;;;1.38;;
75626;SDS011;67372;49.404;11.034;2023-03-23T14:36:48;2.53;;;1.40;;
75626;SDS011;67372;49.404;11.034;2023-03-23T14:39:19;2.30;;;1.52;;
75626;SDS011;67372;49.404;11.034;2023-03-23T14:41:48;2.00;;;1.50;;
75626;SDS011;67372;49.404;11.034;2023-03-23T14:44:15;2.10;;;1.30;;
75626;SDS011;67372;49.404;11.034;2023-03-23T14:46:46;2.30;;;1.60;;
75626;SDS011;67372;49.404;11.034;2023-03-23T14:49:14;1.83;;;1.40;;
75626;SDS011;67372;49.404;11.034;2023-03-23T14:51:51;1.65;;;1.40;;
75626;SDS011;67372;49.404;11.034;2023-03-23T14:54:21;2.17;;;1.50;;
75626;SDS011;67372;49.404;11.034;2023-03-23T14:56:51;4.05;;;3.50;;
75626;SDS011;67372;49.404;11.034;2023-03-23T14:59:17;2.13;;;1.60;;
75626;SDS011;67372;49.404;11.034;2023-03-23T15:01:43;3.97;;;1.90;;
75626;SDS011;67372;49.404;11.034;2023-03-23T15:04:16;5.03;;;2.15;;
75626;SDS011;67372;49.404;11.034;2023-03-23T15:06:46;2.03;;;1.60;;
75626;SDS011;67372;49.404;11.034;2023-03-23T15:09:17;4.45;;;1.88;;
75626;SDS011;67372;49.404;11.034;2023-03-23T15:11:50;2.55;;;1.77;;
75626;SDS011;67372;49.404;11.034;2023-03-23T15:14:22;3.13;;;1.75;;
75626;SDS011;67372;49.404;11.034;2023-03-23T15:16:51;2.97;;;1.65;;
75626;SDS011;67372;49.404;11.034;2023-03-23T15:21:53;2.47;;;1.70;;
75626;SDS011;67372;49.404;11.034;2023-03-23T15:24:41;3.40;;;1.88;;
75626;SDS011;67372;49.404;11.034;2023-03-23T15:27:11;1.92;;;1.60;;
75626;SDS011;67372;49.404;11.034;2023-03-23T15:29:52;3.58;;;1.70;;
75626;SDS011;67372;49.404;11.034;2023-03-23T15:32:23;3.00;;;1.75;;
75626;SDS011;67372;49.404;11.034;2023-03-23T15:34:50;1.92;;;1.50;;
75626;SDS011;67372;49.404;11.034;2023-03-23T15:37:18;2.85;;;1.80;;
75626;SDS011;67372;49.404;11.034;2023-03-23T15:39:46;3.67;;;1.85;;
75626;SDS011;67372;49.404;11.034;2023-03-23T15:42:28;3.08;;;1.90;;
75626;SDS011;67372;49.404;11.034;2023-03-23T15:50:17;8.85;;;3.97;;
75626;SDS011;67372;49.404;11.034;2023-03-23T15:52:42;5.60;;;3.33;;
75626;SDS011;67372;49.404;11.034;2023-03-23T15:55:23;9.80;;;4.40;;
75626;SDS011;67372;49.404;11.034;2023-03-23T15:57:51;3.20;;;2.25;;
75626;SDS011;67372;49.404;11.034;2023-03-23T16:00:19;2.50;;;2.08;;
75626;SDS011;67372;49.404;11.034;2023-03-23T16:02:48;4.35;;;2.80;;
75626;SDS011;67372;49.404;11.034;2023-03-23T16:05:19;8.88;;;4.57;;
75626;SDS011;67372;49.404;11.034;2023-03-23T16:07:45;5.05;;;3.35;;
75626;SDS011;67372;49.404;11.034;2023-03-23T16:10:18;5.53;;;3.40;;
75626;SDS011;67372;49.404;11.034;2023-03-23T16:12:46;4.07;;;2.58;;
75626;SDS011;67372;49.404;11.034;2023-03-23T16:15:13;2.70;;;2.22;;
75626;SDS011;67372;49.404;11.034;2023-03-23T16:17:40;3.03;;;2.22;;
75626;SDS011;67372;49.404;11.034;2023-03-23T16:22:44;4.03;;;2.20;;
75626;SDS011;67372;49.404;11.034;2023-03-23T16:25:11;2.40;;;1.80;;
75626;SDS011;67372;49.404;11.034;2023-03-23T16:27:39;2.45;;;1.98;;